RKPK

Gimhae International Airport

Busan, South Korea
TAF RKPK 232300Z 2400/2506 33006KT 9999 FEW030 TX22/2406Z TN08/2421Z BECMG 2404/2405 21006KT BECMG 2409/2410 33006KT
Issued Valid From Valid To
Oct-23 @ 23:00 UTC
(6 hours ago)
Oct-24 @ 00:00 UTC
(5 hours ago)
Oct-25 @ 06:00 UTC
(-1 days ago)
Expired Click to View Oct-24 @ 00:00 to Oct-24 @ 04:00
TAF RKPK 232300Z 2400/2506 33006KT 9999 FEW030 TX22/2406Z TN08/2421Z
Wind Visibility Clouds
330° at 6 knots 10,000+ meters
  • Few at 3,000' AGL
Becoming Oct-24 @ 04:00 to Oct-24 @ 09:00
BECMG 2404/2405 21006KT
Wind Visibility Clouds
210° at 6 knots 10,000+ meters
  • Few at 3,000' AGL
Becoming Oct-24 @ 09:00 to Oct-25 @ 06:00
BECMG 2409/2410 33006KT
Wind Visibility Clouds
330° at 6 knots 10,000+ meters
  • Few at 3,000' AGL
TAF RKPK 232300Z 2400/2506 33006KT 9999 FEW030 TX22/2406Z TN08/2421Z BECMG 2404/2405 21006KT BECMG 2409/2410 33006KT
Issued Oct-23 @ 23:00 UTC
(6 hours ago)
Valid From Oct-24 @ 00:00 UTC
(5 hours ago)
Valid To Oct-25 @ 06:00 UTC
(-1 days ago)
Oct-24 @ 00:00 - Oct-24 @ 04:00
Wind Visibility
330° at 6 knots 10,000+ meters
Clouds
  • Few at 3,000' AGL
Becoming Oct-24 @ 04:00 - Oct-24 @ 09:00
Wind Visibility
210° at 6 knots 10,000+ meters
Clouds
  • Few at 3,000' AGL
Becoming Oct-24 @ 09:00 - Oct-25 @ 06:00
Wind Visibility
330° at 6 knots 10,000+ meters
Clouds
  • Few at 3,000' AGL